createdAt,value
2018-06-11T00:00:29.576Z,35.53
2018-06-11T00:02:56.991Z,29.00
2018-06-11T00:05:24.406Z,27.23
2018-06-11T00:07:51.925Z,30.30
2018-06-11T00:10:19.408Z,31.00
2018-06-11T00:12:46.813Z,31.47
2018-06-11T00:15:14.315Z,28.33
2018-06-11T00:17:41.821Z,30.50
2018-06-11T00:20:09.351Z,28.07
2018-06-11T00:22:36.743Z,27.80
2018-06-11T00:25:04.219Z,26.10
2018-06-11T00:27:31.617Z,28.30
2018-06-11T00:29:59.062Z,31.93
2018-06-11T00:32:26.568Z,33.23
2018-06-11T00:34:54.020Z,42.70
2018-06-11T00:37:21.489Z,33.97
2018-06-11T00:39:48.929Z,35.07
2018-06-11T00:42:16.411Z,33.97
2018-06-11T00:44:43.900Z,32.47
2018-06-11T00:47:11.352Z,32.77
2018-06-11T00:49:38.769Z,26.37
2018-06-11T00:52:06.223Z,27.57
2018-06-11T00:54:33.651Z,28.47
2018-06-11T00:57:01.104Z,31.53
2018-06-11T00:59:28.530Z,28.07
2018-06-11T01:01:56.071Z,33.30
2018-06-11T01:04:23.520Z,26.13
2018-06-11T01:06:50.953Z,34.00
2018-06-11T01:09:19.361Z,26.40
2018-06-11T01:11:46.769Z,29.50
2018-06-11T01:14:14.198Z,31.57
2018-06-11T01:16:41.660Z,33.97
2018-06-11T01:19:09.109Z,38.10
2018-06-11T01:21:36.565Z,31.97
2018-06-11T01:24:04.007Z,29.57
2018-06-11T01:26:31.456Z,38.87
2018-06-11T01:28:58.897Z,38.73
2018-06-11T01:31:26.358Z,29.10
2018-06-11T01:33:53.768Z,35.63
2018-06-11T01:36:21.222Z,32.27
2018-06-11T01:38:48.655Z,33.70
2018-06-11T01:41:16.134Z,33.17
2018-06-11T01:43:43.620Z,32.53
2018-06-11T01:46:11.061Z,32.23
2018-06-11T01:48:38.514Z,37.13
2018-06-11T01:51:05.954Z,38.40
2018-06-11T01:53:33.391Z,31.93
2018-06-11T01:56:00.845Z,34.60
2018-06-11T01:58:28.285Z,35.37
2018-06-11T02:00:55.777Z,36.70
2018-06-11T02:03:23.195Z,34.77
2018-06-11T02:05:50.623Z,35.33
2018-06-11T02:08:18.054Z,34.07
2018-06-11T02:10:45.466Z,37.07
2018-06-11T02:13:12.894Z,37.33
2018-06-11T02:15:40.411Z,36.37
2018-06-11T02:18:07.826Z,36.30
2018-06-11T02:20:35.302Z,32.17
2018-06-11T02:23:02.763Z,39.63
2018-06-11T02:25:30.208Z,32.03
2018-06-11T02:27:57.666Z,40.03
2018-06-11T02:30:25.141Z,33.23
2018-06-11T02:32:52.683Z,39.77
2018-06-11T02:35:20.109Z,33.70
2018-06-11T02:37:47.540Z,39.60
2018-06-11T02:40:15.038Z,34.00
2018-06-11T02:42:42.432Z,32.40
2018-06-11T02:45:09.882Z,30.27
2018-06-11T02:47:37.408Z,30.80
2018-06-11T02:50:05.160Z,31.90
2018-06-11T02:52:32.747Z,29.90
2018-06-11T02:55:00.166Z,34.27
2018-06-11T02:57:27.596Z,34.47
2018-06-11T02:59:55.279Z,34.80
2018-06-11T03:02:22.712Z,32.87
2018-06-11T03:04:50.141Z,35.73
2018-06-11T03:07:17.564Z,30.60
2018-06-11T03:09:44.998Z,30.90
2018-06-11T03:12:12.430Z,30.63
2018-06-11T03:14:39.918Z,31.20
2018-06-11T03:17:07.355Z,27.53
2018-06-11T03:19:34.844Z,26.57
2018-06-11T03:22:02.357Z,27.73
2018-06-11T03:24:29.818Z,30.57
2018-06-11T03:26:57.232Z,30.33
2018-06-11T03:30:27.968Z,28.93
2018-06-11T03:32:55.385Z,29.23
2018-06-11T03:35:22.877Z,27.60
2018-06-11T03:37:50.270Z,27.37
2018-06-11T03:40:17.802Z,30.50
2018-06-11T03:42:45.305Z,27.50
2018-06-11T03:45:12.733Z,29.30
2018-06-11T03:47:40.149Z,25.33
2018-06-11T03:50:07.652Z,24.07
2018-06-11T03:52:35.082Z,20.50
2018-06-11T03:55:02.551Z,21.10
2018-06-11T03:57:30.003Z,26.73
2018-06-11T03:59:57.487Z,25.10
2018-06-11T04:02:24.925Z,25.37
2018-06-11T04:04:52.401Z,24.77
2018-06-11T04:07:19.860Z,21.37
2018-06-11T04:09:47.290Z,20.30
2018-06-11T04:12:14.722Z,22.10
2018-06-11T04:14:42.142Z,19.53
2018-06-11T04:17:09.618Z,23.83
2018-06-11T04:19:37.330Z,20.60
2018-06-11T04:22:04.962Z,22.87
2018-06-11T04:24:32.354Z,22.13
2018-06-11T04:26:59.839Z,22.13
2018-06-11T04:29:27.245Z,21.67
2018-06-11T04:31:54.706Z,24.43
2018-06-11T04:34:22.104Z,24.33
2018-06-11T04:36:49.514Z,22.57
2018-06-11T04:39:16.981Z,20.97
2018-06-11T04:41:44.404Z,16.77
2018-06-11T04:44:11.838Z,19.27
2018-06-11T04:46:39.294Z,15.70
2018-06-11T04:49:06.827Z,21.37
2018-06-11T04:51:34.390Z,14.40
2018-06-11T04:54:01.802Z,15.83
2018-06-11T04:56:29.265Z,22.13
2018-06-11T04:58:56.779Z,16.17
2018-06-11T05:01:24.217Z,15.97
2018-06-11T05:03:51.875Z,13.13
2018-06-11T05:06:19.294Z,17.27
2018-06-11T05:08:46.746Z,21.83
2018-06-11T05:11:14.228Z,15.00
2018-06-11T05:13:41.768Z,13.43
2018-06-11T05:16:09.191Z,22.20
2018-06-11T05:18:36.792Z,13.60
2018-06-11T05:21:04.205Z,18.20
2018-06-11T05:23:31.718Z,10.77
2018-06-11T05:25:59.202Z,11.60
2018-06-11T05:28:26.671Z,16.60
2018-06-11T05:30:54.149Z,11.63
2018-06-11T05:33:21.594Z,12.17
2018-06-11T05:35:49.041Z,11.60
2018-06-11T05:38:16.443Z,11.93
2018-06-11T05:40:43.986Z,12.30
2018-06-11T05:43:11.459Z,10.30
2018-06-11T05:45:38.909Z,13.30
2018-06-11T05:48:06.343Z,12.83
2018-06-11T05:50:33.814Z,10.40
2018-06-11T05:53:01.340Z,12.07
2018-06-11T05:55:28.808Z,13.27
2018-06-11T05:57:56.283Z,9.00
2018-06-11T06:00:23.862Z,10.80
2018-06-11T06:02:51.338Z,11.30
2018-06-11T06:05:18.764Z,20.27
2018-06-11T06:07:46.260Z,11.70
2018-06-11T06:10:13.773Z,10.83
2018-06-11T06:12:41.189Z,9.27
2018-06-11T06:15:08.607Z,11.33
2018-06-11T06:17:36.070Z,9.07
2018-06-11T06:20:03.589Z,8.50
2018-06-11T06:22:30.976Z,10.13
2018-06-11T06:24:58.420Z,11.77
2018-06-11T06:27:25.890Z,7.97
2018-06-11T06:29:53.493Z,12.37
2018-06-11T06:32:20.889Z,11.63
2018-06-11T06:34:48.388Z,9.60
2018-06-11T06:37:16.742Z,9.03
2018-06-11T06:39:44.239Z,10.53
2018-06-11T06:42:11.656Z,11.53
2018-06-11T06:44:39.067Z,8.73
2018-06-11T06:47:06.548Z,12.50
2018-06-11T06:49:34.024Z,8.17
2018-06-11T06:52:01.468Z,10.90
2018-06-11T06:54:28.949Z,11.43
2018-06-11T06:56:56.381Z,8.73
2018-06-11T06:59:23.849Z,14.33
2018-06-11T07:01:51.365Z,10.87
2018-06-11T07:04:19.070Z,9.47
2018-06-11T07:06:46.486Z,8.77
2018-06-11T07:09:13.982Z,8.90
2018-06-11T07:11:41.417Z,10.53
2018-06-11T07:14:08.942Z,8.20
2018-06-11T07:16:36.534Z,9.93
2018-06-11T07:19:04.125Z,8.80
2018-06-11T07:21:31.649Z,11.90
2018-06-11T07:23:59.315Z,7.03
2018-06-11T07:26:26.951Z,16.13
2018-06-11T07:28:54.401Z,7.30
2018-06-11T07:31:21.968Z,6.20
2018-06-11T07:39:33.011Z,8.53
2018-06-11T07:42:00.470Z,7.50
2018-06-11T07:44:28.229Z,9.00
2018-06-11T07:46:55.710Z,6.00
2018-06-11T07:49:23.370Z,8.93
2018-06-11T07:51:51.084Z,5.93
2018-06-11T07:54:18.965Z,6.53
2018-06-11T07:56:46.770Z,11.40
2018-06-11T07:59:14.509Z,7.97
2018-06-11T08:01:42.230Z,7.57
2018-06-11T08:04:10.016Z,8.13
2018-06-11T08:06:37.729Z,8.30
2018-06-11T08:09:06.711Z,5.83
2018-06-11T08:11:34.487Z,9.63
2018-06-11T08:14:02.275Z,6.57
2018-06-11T08:16:30.013Z,5.50
2018-06-11T08:18:57.801Z,8.97
2018-06-11T08:21:25.657Z,8.93
2018-06-11T08:23:53.395Z,6.43
2018-06-11T08:26:21.160Z,9.93
2018-06-11T08:28:49.094Z,10.20
2018-06-11T08:31:16.709Z,7.07
2018-06-11T08:33:44.578Z,5.97
2018-06-11T08:36:12.290Z,8.33
2018-06-11T08:38:40.023Z,8.13
2018-06-11T08:41:07.793Z,5.40
2018-06-11T08:43:35.639Z,9.73
2018-06-11T08:46:03.424Z,9.17
2018-06-11T08:48:31.093Z,6.13
2018-06-11T08:50:58.897Z,13.10
2018-06-11T08:53:26.662Z,8.07
2018-06-11T08:55:54.386Z,7.90
2018-06-11T08:58:22.150Z,8.63
2018-06-11T09:00:49.940Z,6.70
2018-06-11T09:03:18.577Z,6.33
2018-06-11T09:05:46.298Z,6.97
2018-06-11T09:08:14.049Z,9.03
2018-06-11T09:10:41.843Z,9.53
2018-06-11T09:13:09.573Z,6.70
2018-06-11T09:15:37.192Z,8.40
2018-06-11T09:18:05.063Z,9.77
2018-06-11T09:20:32.856Z,7.73
2018-06-11T09:23:00.522Z,5.47
2018-06-11T09:25:29.419Z,5.97
2018-06-11T09:27:57.072Z,6.87
2018-06-11T09:30:24.869Z,5.90
2018-06-11T09:32:52.644Z,10.70
2018-06-11T09:35:20.455Z,8.33
2018-06-11T09:37:48.252Z,5.73
2018-06-11T09:40:16.059Z,5.70
2018-06-11T09:42:43.787Z,8.17
2018-06-11T09:45:11.490Z,6.43
2018-06-11T09:47:39.186Z,6.57
2018-06-11T09:50:06.844Z,8.60
2018-06-11T09:52:34.639Z,6.07
2018-06-11T09:55:02.262Z,9.23
2018-06-11T09:57:29.965Z,5.80
2018-06-11T09:59:57.630Z,5.73
2018-06-11T10:02:25.357Z,5.40
2018-06-11T10:04:53.018Z,4.83
2018-06-11T10:07:20.712Z,5.90
2018-06-11T10:09:48.501Z,5.30
2018-06-11T10:12:16.421Z,4.70
2018-06-11T10:14:45.172Z,10.77
2018-06-11T10:17:12.969Z,8.90
2018-06-11T10:19:40.677Z,6.03
2018-06-11T10:22:08.445Z,6.37
2018-06-11T10:24:36.188Z,4.73
2018-06-11T10:27:03.849Z,7.53
2018-06-11T10:29:31.513Z,4.10
2018-06-11T10:31:59.206Z,6.97
2018-06-11T10:34:27.072Z,5.03
2018-06-11T10:36:54.793Z,5.60
2018-06-11T10:39:22.509Z,5.83
2018-06-11T10:41:50.229Z,5.80
2018-06-11T10:44:18.013Z,8.97
2018-06-11T10:46:45.721Z,7.47
2018-06-11T10:49:13.714Z,9.67
2018-06-11T10:51:41.425Z,5.37
2018-06-11T10:54:09.169Z,4.77
2018-06-11T10:56:36.801Z,5.13
2018-06-11T10:59:04.568Z,7.80
2018-06-11T11:01:32.199Z,3.40
2018-06-11T11:03:59.938Z,7.63
2018-06-11T11:06:27.742Z,6.40
2018-06-11T11:08:56.399Z,7.73
2018-06-11T11:11:24.135Z,8.53
2018-06-11T11:13:51.850Z,3.70
2018-06-11T11:16:19.543Z,5.50
2018-06-11T11:18:47.317Z,6.83
2018-06-11T11:21:16.194Z,4.67
2018-06-11T11:23:43.859Z,6.43
2018-06-11T11:26:11.544Z,7.60
2018-06-11T11:28:39.335Z,7.17
2018-06-11T11:31:07.078Z,5.20
2018-06-11T11:33:34.764Z,4.40
2018-06-11T11:36:02.471Z,4.27
2018-06-11T11:38:30.207Z,3.60
2018-06-11T11:40:58.987Z,6.90
2018-06-11T11:43:26.864Z,6.00
2018-06-11T11:45:54.601Z,3.33
2018-06-11T11:48:22.256Z,5.17
2018-06-11T11:50:51.019Z,5.17
2018-06-11T11:53:18.647Z,4.57
2018-06-11T11:55:46.372Z,3.80
2018-06-11T11:58:15.281Z,4.60
2018-06-11T12:00:44.185Z,2.90
2018-06-11T12:03:11.883Z,5.43
2018-06-11T12:05:39.621Z,8.27
2018-06-11T12:08:07.270Z,7.57
2018-06-11T12:10:35.077Z,6.10
2018-06-11T12:13:02.747Z,4.00
2018-06-11T12:15:31.074Z,3.87
2018-06-11T12:17:59.071Z,3.33
2018-06-11T12:20:26.769Z,2.70
2018-06-11T12:22:54.547Z,3.30
2018-06-11T12:25:22.218Z,5.70
2018-06-11T12:27:50.098Z,3.07
2018-06-11T12:30:17.774Z,7.30
2018-06-11T12:32:45.458Z,3.50
2018-06-11T12:35:13.272Z,4.37
2018-06-11T12:37:41.010Z,4.50
2018-06-11T12:40:08.815Z,3.47
2018-06-11T12:42:36.500Z,2.90
2018-06-11T12:45:04.488Z,7.20
2018-06-11T12:47:32.363Z,3.93
2018-06-11T12:50:00.128Z,7.53
2018-06-11T12:52:27.892Z,6.37
2018-06-11T12:54:55.728Z,4.00
2018-06-11T12:57:23.450Z,10.70
2018-06-11T12:59:51.310Z,3.80
2018-06-11T13:02:19.056Z,3.50
2018-06-11T13:04:46.728Z,6.90
2018-06-11T13:07:14.544Z,4.90
2018-06-11T13:09:42.319Z,5.63
2018-06-11T13:12:10.123Z,5.50
2018-06-11T13:14:38.056Z,3.80
2018-06-11T13:17:05.824Z,5.63
2018-06-11T13:19:33.760Z,3.50
2018-06-11T13:22:01.712Z,4.17
2018-06-11T13:24:29.553Z,4.37
2018-06-11T13:26:57.458Z,3.47
2018-06-11T13:29:25.237Z,4.03
2018-06-11T13:31:53.046Z,4.17
2018-06-11T13:34:20.789Z,4.30
2018-06-11T13:36:48.532Z,7.47
2018-06-11T13:39:16.369Z,6.10
2018-06-11T13:41:44.090Z,7.10
2018-06-11T13:44:11.847Z,11.07
2018-06-11T13:46:39.798Z,14.07
2018-06-11T13:49:07.620Z,12.00
2018-06-11T13:51:35.294Z,9.37
2018-06-11T13:54:03.117Z,10.63
2018-06-11T13:56:30.876Z,11.57
2018-06-11T13:58:58.725Z,9.73
2018-06-11T14:01:26.420Z,9.23
2018-06-11T14:03:54.115Z,6.53
2018-06-11T14:06:21.905Z,6.43
2018-06-11T14:08:49.523Z,3.87
2018-06-11T14:11:17.276Z,4.20
2018-06-11T14:13:44.950Z,3.97
2018-06-11T14:16:12.904Z,5.73
2018-06-11T14:18:40.582Z,6.07
2018-06-11T14:21:08.433Z,4.27
2018-06-11T14:23:36.166Z,3.30
2018-06-11T14:26:03.965Z,8.00
2018-06-11T14:28:31.824Z,2.93
2018-06-11T14:30:59.731Z,6.43
2018-06-11T14:33:27.641Z,4.33
2018-06-11T14:35:55.383Z,2.50
2018-06-11T14:38:23.200Z,3.87
2018-06-11T14:40:52.018Z,2.27
2018-06-11T14:43:20.704Z,10.10
2018-06-11T14:45:48.346Z,3.87
2018-06-11T14:48:16.056Z,2.13
2018-06-11T14:50:45.079Z,2.90
2018-06-11T14:53:12.834Z,3.30
2018-06-11T14:55:40.623Z,2.73
2018-06-11T14:58:08.443Z,4.53
2018-06-11T15:00:37.073Z,2.60
2018-06-11T15:03:04.865Z,4.10
2018-06-11T15:05:32.518Z,2.90
2018-06-11T15:08:00.261Z,2.60
2018-06-11T15:10:27.921Z,5.53
2018-06-11T15:12:55.618Z,5.77
2018-06-11T15:15:23.421Z,4.40
2018-06-11T15:17:51.074Z,5.40
2018-06-11T15:20:18.828Z,3.83
2018-06-11T15:22:47.665Z,3.97
2018-06-11T15:25:15.348Z,3.50
2018-06-11T15:27:43.017Z,2.80
2018-06-11T15:30:10.615Z,4.70
2018-06-11T15:32:38.328Z,4.40
2018-06-11T15:35:05.965Z,4.10
2018-06-11T15:37:33.853Z,3.30
2018-06-11T15:40:01.551Z,2.50
2018-06-11T15:42:29.238Z,2.40
2018-06-11T15:44:56.983Z,2.60
2018-06-11T15:47:24.720Z,2.93
2018-06-11T15:49:52.562Z,5.77
2018-06-11T15:52:20.290Z,2.90
2018-06-11T15:54:47.966Z,2.37
2018-06-11T15:57:16.059Z,2.87
2018-06-11T15:59:43.725Z,4.07
2018-06-11T16:02:11.648Z,2.90
2018-06-11T16:04:39.452Z,4.90
2018-06-11T16:07:07.063Z,3.23
2018-06-11T16:12:20.028Z,3.40
2018-06-11T16:14:47.599Z,3.03
2018-06-11T16:17:15.346Z,3.80
2018-06-11T16:19:42.902Z,3.10
2018-06-11T16:22:11.684Z,3.03
2018-06-11T16:24:39.297Z,4.27
2018-06-11T16:27:06.837Z,4.17
2018-06-11T16:29:34.513Z,2.70
2018-06-11T16:32:03.897Z,3.20
2018-06-11T16:34:32.570Z,3.97
2018-06-11T16:37:00.762Z,4.67
2018-06-11T16:39:28.390Z,5.90
2018-06-11T16:41:57.215Z,7.53
2018-06-11T16:44:27.468Z,4.30
2018-06-11T16:46:56.064Z,4.37
2018-06-11T16:49:23.713Z,4.53
2018-06-11T16:51:54.740Z,3.40
2018-06-11T16:54:24.444Z,5.53
2018-06-11T16:56:52.079Z,4.73
2018-06-11T16:59:19.688Z,4.70
2018-06-11T17:01:47.223Z,4.87
2018-06-11T17:04:19.520Z,4.80
2018-06-11T17:06:49.165Z,3.73
2018-06-11T17:09:16.789Z,5.30
2018-06-11T17:11:46.443Z,5.77
2018-06-11T17:14:18.063Z,3.37
2018-06-11T17:16:45.806Z,6.50
2018-06-11T17:19:13.421Z,4.10
2018-06-11T17:21:41.096Z,3.07
2018-06-11T17:24:10.727Z,9.00
2018-06-11T17:26:39.351Z,4.57
2018-06-11T17:29:06.848Z,3.90
2018-06-11T17:31:34.498Z,3.97
2018-06-11T17:34:02.031Z,6.57
2018-06-11T17:36:30.011Z,9.10
2018-06-11T17:38:57.635Z,9.23
2018-06-11T17:41:25.286Z,7.17
2018-06-11T17:44:04.204Z,5.43
2018-06-11T17:46:32.922Z,4.80
2018-06-11T17:49:00.750Z,5.23
2018-06-11T17:51:30.047Z,8.60
2018-06-11T17:53:57.656Z,6.63
2018-06-11T17:56:36.200Z,5.00
2018-06-11T17:59:04.882Z,4.73
2018-06-11T18:01:32.693Z,4.83
2018-06-11T18:04:01.453Z,4.10
2018-06-11T18:06:31.156Z,5.30
2018-06-11T18:08:59.080Z,3.83
2018-06-11T18:11:30.160Z,3.83
2018-06-11T18:13:57.737Z,6.13
2018-06-11T18:16:25.356Z,2.87
2018-06-11T18:18:53.070Z,3.77
2018-06-11T18:21:20.669Z,5.60
2018-06-11T18:23:50.338Z,5.10
2018-06-11T18:26:20.208Z,8.30
2018-06-11T18:28:47.803Z,3.80
2018-06-11T18:31:16.223Z,5.80
2018-06-11T18:33:43.939Z,6.50
2018-06-11T18:36:11.568Z,3.90
2018-06-11T18:38:39.219Z,3.63
2018-06-11T18:41:08.973Z,3.60
2018-06-11T18:43:37.685Z,3.07
2018-06-11T18:46:05.202Z,4.47
2018-06-11T18:48:33.831Z,5.43
2018-06-11T18:51:01.473Z,4.60
2018-06-11T18:53:29.102Z,5.17
2018-06-11T18:55:56.686Z,7.87
2018-06-11T18:58:24.537Z,3.83
2018-06-11T19:00:54.209Z,8.17
2018-06-11T19:03:22.965Z,4.30
2018-06-11T19:05:50.760Z,3.73
2018-06-11T19:08:18.404Z,5.80
2018-06-11T19:10:45.974Z,4.60
2018-06-11T19:13:13.671Z,6.70
2018-06-11T19:15:42.163Z,4.37
2018-06-11T19:18:09.773Z,7.10
2018-06-11T19:20:38.518Z,4.00
2018-06-11T19:23:08.207Z,3.60
2018-06-11T19:25:35.901Z,7.37
2018-06-11T19:28:03.455Z,4.00
2018-06-11T19:30:33.320Z,5.17
2018-06-11T19:33:01.034Z,4.93
2018-06-11T19:35:28.682Z,3.57
2018-06-11T19:37:56.289Z,4.77
2018-06-11T19:40:23.880Z,6.03
2018-06-11T19:42:51.641Z,5.20
2018-06-11T19:45:19.211Z,6.20
2018-06-11T19:47:46.896Z,6.67
2018-06-11T19:50:14.556Z,4.70
2018-06-11T19:52:42.944Z,4.50
2018-06-11T19:56:14.597Z,9.40
2018-06-11T19:58:42.225Z,4.20
2018-06-11T20:01:13.730Z,7.87
2018-06-11T20:03:43.329Z,4.93
2018-06-11T20:06:10.891Z,10.60
2018-06-11T20:08:38.497Z,5.63
2018-06-11T20:11:06.092Z,7.77
2018-06-11T20:13:33.626Z,4.93
2018-06-11T20:16:01.126Z,8.67
2018-06-11T20:18:28.674Z,5.80
2018-06-11T20:20:56.262Z,7.90
2018-06-11T20:23:30.904Z,6.50
2018-06-11T20:26:12.892Z,6.30
2018-06-11T20:28:40.401Z,6.40
2018-06-11T20:31:08.127Z,4.87
2018-06-11T20:33:36.891Z,5.00
2018-06-11T20:36:05.464Z,11.63
2018-06-11T20:38:33.180Z,7.80
2018-06-11T20:41:01.273Z,7.33
2018-06-11T20:43:28.834Z,7.10
2018-06-11T20:45:56.451Z,6.70
2018-06-11T20:48:23.995Z,5.83
2018-06-11T20:50:51.551Z,6.70
2018-06-11T20:53:19.157Z,5.67
2018-06-11T20:55:46.732Z,8.90
2018-06-11T20:58:15.257Z,8.77
2018-06-11T21:00:42.855Z,9.60
2018-06-11T21:03:10.507Z,5.77
2018-06-11T21:05:38.130Z,9.67
2018-06-11T21:08:06.853Z,10.07
2018-06-11T21:10:34.596Z,7.77
2018-06-11T21:13:02.668Z,13.47
2018-06-11T21:15:32.769Z,8.03
2018-06-11T21:18:00.267Z,25.47
2018-06-11T21:20:27.845Z,12.50
2018-06-11T21:22:55.360Z,7.33
2018-06-11T21:25:22.982Z,6.57
2018-06-11T21:27:50.508Z,9.37
2018-06-11T21:30:18.200Z,11.90
2018-06-11T21:32:45.771Z,14.10
2018-06-11T21:35:13.259Z,7.30
2018-06-11T21:37:42.021Z,8.50
2018-06-11T21:40:09.827Z,18.10
2018-06-11T21:42:37.656Z,6.63
2018-06-11T21:45:05.513Z,10.63
2018-06-11T21:47:34.485Z,8.90
2018-06-11T21:50:02.166Z,10.00
2018-06-11T21:52:29.817Z,15.23
2018-06-11T21:54:57.427Z,12.73
2018-06-11T21:57:26.379Z,10.70
2018-06-11T21:59:53.994Z,9.40
2018-06-11T22:02:26.501Z,13.87
2018-06-11T22:04:54.204Z,10.70
2018-06-11T22:07:21.947Z,13.67
2018-06-11T22:09:49.637Z,10.13
2018-06-11T22:12:17.444Z,11.10
2018-06-11T22:14:45.223Z,12.73
2018-06-11T22:17:12.862Z,10.50
2018-06-11T22:19:40.555Z,7.83
2018-06-11T22:22:08.358Z,9.97
2018-06-11T22:24:37.194Z,15.03
2018-06-11T22:27:05.000Z,11.43
2018-06-11T22:29:33.788Z,17.10
2018-06-11T22:32:01.533Z,18.83
2018-06-11T22:34:30.483Z,17.33
2018-06-11T22:36:59.253Z,17.37
2018-06-11T22:39:26.959Z,12.13
2018-06-11T22:41:54.783Z,8.70
2018-06-11T22:44:22.482Z,12.30
2018-06-11T22:46:50.160Z,9.37
2018-06-11T22:49:17.960Z,12.90
2018-06-11T22:51:45.769Z,10.43
2018-06-11T22:54:13.523Z,12.83
2018-06-11T22:56:41.658Z,10.10
2018-06-11T22:59:09.472Z,9.80
2018-06-11T23:01:37.058Z,9.43
2018-06-11T23:04:04.865Z,16.67
2018-06-11T23:06:32.518Z,7.60
2018-06-11T23:09:00.308Z,9.37
2018-06-11T23:11:28.035Z,10.10
2018-06-11T23:13:55.786Z,11.23
2018-06-11T23:16:23.527Z,12.30
2018-06-11T23:18:51.296Z,10.93
2018-06-11T23:21:18.921Z,11.70
2018-06-11T23:23:46.596Z,11.80
2018-06-11T23:26:14.330Z,9.07
2018-06-11T23:28:42.274Z,11.23
2018-06-11T23:31:10.082Z,10.80
2018-06-11T23:33:37.907Z,10.30
2018-06-11T23:36:05.593Z,11.13
2018-06-11T23:38:33.279Z,12.23
2018-06-11T23:41:01.047Z,10.97
2018-06-11T23:43:28.761Z,9.53
2018-06-11T23:45:56.342Z,12.33
2018-06-11T23:48:23.981Z,11.80
2018-06-11T23:50:51.702Z,15.53
2018-06-11T23:53:19.521Z,10.37
2018-06-11T23:55:47.232Z,12.10
2018-06-11T23:58:14.973Z,11.37
